createdAt,value
2022-11-13T00:04:26.048Z,98239.63
2022-11-13T00:10:05.569Z,98240.97
2022-11-13T00:15:45.055Z,98239.03
2022-11-13T00:21:25.023Z,98231.69
2022-11-13T00:27:04.633Z,98236.91
2022-11-13T00:32:43.807Z,98229.28
2022-11-13T00:38:22.965Z,98231.03
2022-11-13T00:44:04.059Z,98229.22
2022-11-13T00:49:43.371Z,98231.03
2022-11-13T00:55:22.717Z,98225.19
2022-11-13T01:01:06.514Z,98239.25
2022-11-13T01:06:46.248Z,98233.94
2022-11-13T01:12:25.958Z,98218.09
2022-11-13T01:18:05.413Z,98211.53
2022-11-13T01:23:44.603Z,98209.44
2022-11-13T01:29:24.131Z,98199.31
2022-11-13T01:35:03.712Z,98194.84
2022-11-13T01:40:46.957Z,98185.31
2022-11-13T01:46:27.262Z,98199.31
2022-11-13T01:52:08.551Z,98187.00
2022-11-13T01:57:48.752Z,98187.94
2022-11-13T02:03:28.194Z,98173.81
2022-11-13T02:09:08.240Z,98168.16
2022-11-13T02:14:50.058Z,98168.00
2022-11-13T02:20:40.049Z,98156.16
2022-11-13T02:26:21.111Z,98145.72
2022-11-13T02:32:00.496Z,98147.09
2022-11-13T02:37:39.952Z,98127.56
2022-11-13T02:43:19.446Z,98134.34
2022-11-13T02:48:58.627Z,98134.94
2022-11-13T02:54:37.813Z,98126.59
2022-11-13T03:00:17.792Z,98135.28
2022-11-13T03:05:56.928Z,98128.84
2022-11-13T03:11:36.219Z,98137.94
2022-11-13T03:17:15.291Z,98143.09
2022-11-13T03:22:54.555Z,98131.88
2022-11-13T03:28:34.685Z,98136.25
2022-11-13T03:34:14.024Z,98132.19
2022-11-13T03:39:53.377Z,98130.09
2022-11-13T03:45:32.617Z,98130.69
2022-11-13T03:51:11.862Z,98132.84
2022-11-13T03:56:51.119Z,98120.34
2022-11-13T04:02:30.367Z,98115.38
2022-11-13T04:08:09.834Z,98101.94
2022-11-13T04:13:49.271Z,98099.81
2022-11-13T04:19:28.494Z,98110.19
2022-11-13T04:25:07.908Z,98111.81
2022-11-13T04:30:47.348Z,98110.69
2022-11-13T04:36:26.407Z,98118.00
2022-11-13T04:42:24.214Z,98115.75
2022-11-13T04:48:03.780Z,98114.38
2022-11-13T04:53:43.540Z,98113.19
2022-11-13T04:59:23.173Z,98115.84
2022-11-13T05:05:05.128Z,98116.34
2022-11-13T05:10:44.644Z,98111.03
2022-11-13T05:16:23.860Z,98116.13
2022-11-13T05:22:03.542Z,98111.56
2022-11-13T05:27:42.590Z,98102.03
2022-11-13T05:33:21.866Z,98101.25
2022-11-13T05:39:01.209Z,98092.56
2022-11-13T05:44:40.356Z,98111.25
2022-11-13T05:50:20.787Z,98094.59
2022-11-13T05:56:08.186Z,98093.66
2022-11-13T06:01:47.522Z,98089.88
2022-11-13T06:07:27.163Z,98078.88
2022-11-13T06:13:06.412Z,98073.06
2022-11-13T06:18:46.253Z,98069.31
2022-11-13T06:24:25.797Z,98072.13
2022-11-13T06:30:05.478Z,98065.47
2022-11-13T06:35:44.679Z,98062.84
2022-11-13T06:41:25.154Z,98062.66
2022-11-13T06:47:04.237Z,98077.38
2022-11-13T06:52:43.606Z,98075.25
2022-11-13T06:58:23.115Z,98064.91
2022-11-13T07:04:02.472Z,98050.88
2022-11-13T07:09:42.079Z,98043.81
2022-11-13T07:15:21.481Z,98044.81
2022-11-13T07:21:05.359Z,98051.47
2022-11-13T07:26:44.508Z,98051.91
2022-11-13T07:32:23.744Z,98047.19
2022-11-13T07:38:03.121Z,98053.28
2022-11-13T07:43:42.680Z,98053.59
2022-11-13T07:49:22.151Z,98048.25
2022-11-13T07:55:01.749Z,98043.78
2022-11-13T08:00:41.195Z,98046.94
2022-11-13T08:06:21.091Z,98051.22
2022-11-13T08:12:00.485Z,98061.97
2022-11-13T08:17:40.091Z,98063.59
2022-11-13T08:23:19.299Z,98053.59
2022-11-13T08:28:58.433Z,98052.47
2022-11-13T08:34:37.721Z,98053.53
2022-11-13T08:40:17.242Z,98051.78
2022-11-13T08:45:56.847Z,98039.28
2022-11-13T08:51:36.242Z,98044.50
2022-11-13T08:57:15.588Z,98042.59
2022-11-13T09:02:58.808Z,98029.34
2022-11-13T09:08:38.361Z,98032.94
2022-11-13T09:14:17.729Z,98033.19
2022-11-13T09:20:02.197Z,98034.81
2022-11-13T09:25:43.103Z,98029.28
2022-11-13T09:31:22.336Z,98035.44
2022-11-13T09:37:01.748Z,98032.31
2022-11-13T09:42:41.686Z,98038.66
2022-11-13T09:48:24.299Z,98030.22
2022-11-13T09:54:07.851Z,98027.53
2022-11-13T09:59:47.044Z,98016.16
2022-11-13T10:05:26.605Z,98017.44
2022-11-13T10:11:12.254Z,98007.81
2022-11-13T10:16:55.987Z,98005.53
2022-11-13T10:22:52.061Z,97990.75
2022-11-13T10:34:33.247Z,97979.72
2022-11-13T10:40:23.001Z,97977.03
2022-11-13T10:46:04.221Z,97960.34
2022-11-13T10:51:43.956Z,97949.97
2022-11-13T10:57:34.505Z,97951.03
2022-11-13T11:03:15.450Z,97937.59
2022-11-13T11:09:04.973Z,97928.97
2022-11-13T11:14:53.222Z,97915.19
2022-11-13T11:20:50.975Z,97901.97
2022-11-13T11:26:32.692Z,97893.09
2022-11-13T11:32:15.987Z,97890.56
2022-11-13T11:38:05.948Z,97886.81
2022-11-13T11:43:51.757Z,97874.34
2022-11-13T11:49:31.169Z,97860.81
2022-11-13T11:55:28.733Z,97839.19
2022-11-13T12:01:18.035Z,97835.06
2022-11-13T12:06:57.399Z,97822.34
2022-11-13T12:12:36.874Z,97805.59
2022-11-13T12:18:36.900Z,97803.66
2022-11-13T12:24:31.767Z,97796.19
2022-11-13T12:30:18.835Z,97786.06
2022-11-13T12:35:58.911Z,97789.88
2022-11-13T12:41:44.317Z,97772.69
2022-11-13T12:47:24.300Z,97762.53
2022-11-13T12:53:05.261Z,97758.72
2022-11-13T12:59:30.873Z,97746.13
2022-11-13T13:05:07.550Z,97738.66
2022-11-13T13:11:05.250Z,97740.84
2022-11-13T13:16:44.403Z,97737.56
2022-11-13T13:22:28.653Z,97741.16
2022-11-13T13:28:07.808Z,97740.44
2022-11-13T13:33:59.401Z,97730.75
2022-11-13T13:39:38.803Z,97720.00
2022-11-13T13:45:25.288Z,97717.44
2022-11-13T13:51:10.765Z,97719.75
2022-11-13T13:56:50.020Z,97721.41
2022-11-13T14:02:29.643Z,97716.22
2022-11-13T14:08:20.707Z,97717.44
2022-11-13T14:14:29.115Z,97714.56
2022-11-13T14:20:12.030Z,97699.97
2022-11-13T14:25:51.977Z,97698.81
2022-11-13T14:31:34.015Z,97695.03
2022-11-13T14:37:19.143Z,97691.81
2022-11-13T14:43:02.700Z,97680.88
2022-11-13T14:48:51.813Z,97680.09
2022-11-13T14:55:13.055Z,97683.09
2022-11-13T15:00:36.242Z,97690.09
2022-11-13T15:06:17.340Z,97681.56
2022-11-13T15:11:57.320Z,97670.16
2022-11-13T15:17:37.028Z,97669.00
2022-11-13T15:23:17.172Z,97663.28
2022-11-13T15:28:56.440Z,97675.66
2022-11-13T15:34:35.784Z,97671.09
2022-11-13T15:40:15.772Z,97657.78
2022-11-13T15:45:55.826Z,97658.50
2022-11-13T15:51:35.508Z,97659.34
2022-11-13T15:57:20.075Z,97659.09
2022-11-13T16:02:59.526Z,97657.88
2022-11-13T16:08:39.382Z,97658.88
2022-11-13T16:14:24.393Z,97660.53
2022-11-13T16:20:07.530Z,97658.13
2022-11-13T16:25:48.060Z,97659.66
2022-11-13T16:31:27.488Z,97663.59
2022-11-13T16:37:12.703Z,97668.03
2022-11-13T16:42:52.934Z,97670.94
2022-11-13T16:48:32.586Z,97672.50
2022-11-13T16:54:12.395Z,97666.47
2022-11-13T16:59:52.269Z,97656.97
2022-11-13T17:05:31.840Z,97669.47
2022-11-13T17:11:12.935Z,97665.63
2022-11-13T17:16:52.493Z,97658.03
2022-11-13T17:22:31.632Z,97666.41
2022-11-13T17:28:11.197Z,97663.75
2022-11-13T17:33:54.627Z,97666.94
2022-11-13T17:39:33.960Z,97664.59
2022-11-13T17:45:13.133Z,97662.38
2022-11-13T17:50:56.111Z,97659.66
2022-11-13T17:56:37.729Z,97657.31
2022-11-13T18:02:17.339Z,97653.91
2022-11-13T18:07:56.561Z,97651.03
2022-11-13T18:13:36.356Z,97657.78
2022-11-13T18:19:15.897Z,97651.06
2022-11-13T18:24:57.282Z,97641.09
2022-11-13T18:30:39.565Z,97641.41
2022-11-13T18:36:19.524Z,97621.81
2022-11-13T18:42:00.478Z,97620.72
2022-11-13T18:47:40.401Z,97608.25
2022-11-13T18:53:21.941Z,97609.09
2022-11-13T18:59:02.066Z,97607.47
2022-11-13T19:04:41.586Z,97606.22
2022-11-13T19:10:20.777Z,97605.19
2022-11-13T19:16:08.770Z,97604.19
2022-11-13T19:21:48.206Z,97591.59
2022-11-13T19:27:27.940Z,97593.81
2022-11-13T19:33:07.849Z,97600.25
2022-11-13T19:38:47.468Z,97602.72
2022-11-13T19:44:27.865Z,97599.56
2022-11-13T19:50:10.350Z,97590.25
2022-11-13T19:55:56.302Z,97586.72
2022-11-13T20:01:35.980Z,97584.97
2022-11-13T20:07:15.845Z,97586.56
2022-11-13T20:12:55.955Z,97577.78
2022-11-13T20:18:36.109Z,97575.69
2022-11-13T20:24:15.254Z,97576.25
2022-11-13T20:29:54.898Z,97580.91
2022-11-13T20:35:34.576Z,97576.72
2022-11-13T20:41:13.899Z,97569.88
2022-11-13T20:46:55.771Z,97571.75
2022-11-13T20:52:38.757Z,97562.38
2022-11-13T20:58:18.185Z,97568.50
2022-11-13T21:03:59.651Z,97576.19
2022-11-13T21:09:39.156Z,97579.53
2022-11-13T21:15:19.343Z,97576.09
2022-11-13T21:21:06.109Z,97568.31
2022-11-13T21:26:47.765Z,97563.69
2022-11-13T21:32:29.354Z,97557.09
2022-11-13T21:38:08.686Z,97548.66
2022-11-13T21:43:48.333Z,97548.38
2022-11-13T21:49:27.652Z,97559.75
2022-11-13T21:55:07.721Z,97556.78
2022-11-13T22:00:47.136Z,97556.16
2022-11-13T22:06:30.860Z,97558.75
2022-11-13T22:12:10.802Z,97539.75
2022-11-13T22:17:50.057Z,97542.06
2022-11-13T22:23:29.345Z,97533.09
2022-11-13T22:29:09.473Z,97529.22
2022-11-13T22:34:48.900Z,97524.63
2022-11-13T22:40:27.976Z,97529.59
2022-11-13T22:46:08.771Z,97501.97
2022-11-13T22:51:48.048Z,97495.44
2022-11-13T22:57:27.225Z,97483.59
2022-11-13T23:03:06.208Z,97479.13
2022-11-13T23:08:46.808Z,97476.38
2022-11-13T23:14:26.034Z,97472.59
2022-11-13T23:20:05.423Z,97483.75
2022-11-13T23:25:44.814Z,97476.38
2022-11-13T23:31:24.609Z,97475.47
2022-11-13T23:37:03.867Z,97459.44
2022-11-13T23:42:54.605Z,97455.69
2022-11-13T23:48:35.490Z,97449.59
2022-11-13T23:54:15.107Z,97437.84
2022-11-13T23:59:54.200Z,97448.03
